sensor_id;sensor_type;location;lat;lon;timestamp;P1;durP1;ratioP1;P2;durP2;ratioP2
31390;SDS011;18022;45.492;11.548;2023-07-20T00:00:49;7.78;;;3.92;;
31390;SDS011;18022;45.492;11.548;2023-07-20T00:03:18;10.30;;;4.30;;
31390;SDS011;18022;45.492;11.548;2023-07-20T00:05:48;7.40;;;4.00;;
31390;SDS011;18022;45.492;11.548;2023-07-20T00:08:15;5.10;;;4.20;;
31390;SDS011;18022;45.492;11.548;2023-07-20T00:10:41;8.20;;;4.70;;
31390;SDS011;18022;45.492;11.548;2023-07-20T00:13:07;8.45;;;4.18;;
31390;SDS011;18022;45.492;11.548;2023-07-20T00:15:33;6.45;;;4.47;;
31390;SDS011;18022;45.492;11.548;2023-07-20T00:17:59;7.35;;;4.35;;
31390;SDS011;18022;45.492;11.548;2023-07-20T00:20:25;8.55;;;4.30;;
31390;SDS011;18022;45.492;11.548;2023-07-20T00:22:51;7.68;;;4.60;;
31390;SDS011;18022;45.492;11.548;2023-07-20T00:25:17;7.70;;;4.53;;
31390;SDS011;18022;45.492;11.548;2023-07-20T00:27:43;6.22;;;4.10;;
31390;SDS011;18022;45.492;11.548;2023-07-20T00:30:09;7.00;;;4.43;;
31390;SDS011;18022;45.492;11.548;2023-07-20T00:32:35;5.88;;;4.40;;
31390;SDS011;18022;45.492;11.548;2023-07-20T00:35:01;7.55;;;4.28;;
31390;SDS011;18022;45.492;11.548;2023-07-20T00:37:26;9.20;;;4.78;;
31390;SDS011;18022;45.492;11.548;2023-07-20T00:39:52;5.70;;;4.70;;
31390;SDS011;18022;45.492;11.548;2023-07-20T00:42:18;9.15;;;5.03;;
31390;SDS011;18022;45.492;11.548;2023-07-20T00:44:44;8.25;;;4.50;;
31390;SDS011;18022;45.492;11.548;2023-07-20T00:47:10;7.80;;;4.95;;
31390;SDS011;18022;45.492;11.548;2023-07-20T00:49:36;6.20;;;5.05;;
31390;SDS011;18022;45.492;11.548;2023-07-20T00:52:03;7.22;;;4.45;;
31390;SDS011;18022;45.492;11.548;2023-07-20T00:54:31;8.00;;;5.00;;
31390;SDS011;18022;45.492;11.548;2023-07-20T00:56:57;9.40;;;4.80;;
31390;SDS011;18022;45.492;11.548;2023-07-20T00:59:25;7.35;;;4.72;;
31390;SDS011;18022;45.492;11.548;2023-07-20T01:01:51;9.15;;;5.10;;
31390;SDS011;18022;45.492;11.548;2023-07-20T01:04:17;6.97;;;4.72;;
31390;SDS011;18022;45.492;11.548;2023-07-20T01:12:00;8.48;;;5.38;;
31390;SDS011;18022;45.492;11.548;2023-07-20T01:14:29;10.68;;;5.25;;
31390;SDS011;18022;45.492;11.548;2023-07-20T01:16:56;6.70;;;4.90;;
31390;SDS011;18022;45.492;11.548;2023-07-20T01:19:22;7.05;;;4.70;;
31390;SDS011;18022;45.492;11.548;2023-07-20T01:27:49;8.17;;;5.10;;
31390;SDS011;18022;45.492;11.548;2023-07-20T01:33:14;9.88;;;5.38;;
31390;SDS011;18022;45.492;11.548;2023-07-20T01:35:42;8.43;;;5.10;;
31390;SDS011;18022;45.492;11.548;2023-07-20T01:40:36;10.35;;;5.45;;
31390;SDS011;18022;45.492;11.548;2023-07-20T01:43:03;7.30;;;4.65;;
31390;SDS011;18022;45.492;11.548;2023-07-20T01:45:29;7.75;;;5.10;;
31390;SDS011;18022;45.492;11.548;2023-07-20T01:47:54;7.43;;;5.45;;
31390;SDS011;18022;45.492;11.548;2023-07-20T01:50:20;5.93;;;4.50;;
31390;SDS011;18022;45.492;11.548;2023-07-20T01:52:46;10.90;;;5.38;;
31390;SDS011;18022;45.492;11.548;2023-07-20T01:55:12;9.63;;;5.45;;
31390;SDS011;18022;45.492;11.548;2023-07-20T01:57:37;7.28;;;4.80;;
31390;SDS011;18022;45.492;11.548;2023-07-20T02:00:03;9.75;;;5.20;;
31390;SDS011;18022;45.492;11.548;2023-07-20T02:02:29;7.43;;;4.53;;
31390;SDS011;18022;45.492;11.548;2023-07-20T02:04:55;12.68;;;5.28;;
31390;SDS011;18022;45.492;11.548;2023-07-20T02:07:20;11.75;;;5.78;;
31390;SDS011;18022;45.492;11.548;2023-07-20T02:09:46;9.63;;;5.38;;
31390;SDS011;18022;45.492;11.548;2023-07-20T02:12:12;6.55;;;5.95;;
31390;SDS011;18022;45.492;11.548;2023-07-20T02:14:38;7.10;;;5.70;;
31390;SDS011;18022;45.492;11.548;2023-07-20T02:17:04;9.30;;;6.35;;
31390;SDS011;18022;45.492;11.548;2023-07-20T02:19:30;8.27;;;5.47;;
31390;SDS011;18022;45.492;11.548;2023-07-20T02:21:56;6.90;;;5.60;;
31390;SDS011;18022;45.492;11.548;2023-07-20T02:24:22;6.28;;;5.38;;
31390;SDS011;18022;45.492;11.548;2023-07-20T02:26:47;11.43;;;5.13;;
31390;SDS011;18022;45.492;11.548;2023-07-20T02:29:13;8.15;;;5.65;;
31390;SDS011;18022;45.492;11.548;2023-07-20T02:31:39;15.20;;;5.60;;
31390;SDS011;18022;45.492;11.548;2023-07-20T02:34:05;9.60;;;5.80;;
31390;SDS011;18022;45.492;11.548;2023-07-20T02:36:31;10.07;;;5.72;;
31390;SDS011;18022;45.492;11.548;2023-07-20T02:39:00;10.82;;;6.25;;
31390;SDS011;18022;45.492;11.548;2023-07-20T02:41:29;12.93;;;6.43;;
31390;SDS011;18022;45.492;11.548;2023-07-20T02:43:56;14.13;;;6.70;;
31390;SDS011;18022;45.492;11.548;2023-07-20T02:46:21;9.77;;;6.28;;
31390;SDS011;18022;45.492;11.548;2023-07-20T02:48:47;12.50;;;6.88;;
31390;SDS011;18022;45.492;11.548;2023-07-20T02:51:13;10.18;;;6.40;;
31390;SDS011;18022;45.492;11.548;2023-07-20T02:53:38;9.00;;;6.85;;
31390;SDS011;18022;45.492;11.548;2023-07-20T02:56:04;12.50;;;7.03;;
31390;SDS011;18022;45.492;11.548;2023-07-20T02:58:30;9.88;;;6.35;;
31390;SDS011;18022;45.492;11.548;2023-07-20T03:00:56;10.30;;;6.72;;
31390;SDS011;18022;45.492;11.548;2023-07-20T03:03:21;10.07;;;7.25;;
31390;SDS011;18022;45.492;11.548;2023-07-20T03:05:47;12.65;;;6.75;;
31390;SDS011;18022;45.492;11.548;2023-07-20T03:08:19;10.48;;;6.93;;
31390;SDS011;18022;45.492;11.548;2023-07-20T03:10:45;9.93;;;6.50;;
31390;SDS011;18022;45.492;11.548;2023-07-20T03:13:11;12.82;;;6.40;;
31390;SDS011;18022;45.492;11.548;2023-07-20T03:15:37;13.18;;;7.05;;
31390;SDS011;18022;45.492;11.548;2023-07-20T03:18:03;10.77;;;6.00;;
31390;SDS011;18022;45.492;11.548;2023-07-20T03:20:29;10.52;;;6.68;;
31390;SDS011;18022;45.492;11.548;2023-07-20T03:22:56;12.60;;;7.53;;
31390;SDS011;18022;45.492;11.548;2023-07-20T03:25:21;9.35;;;6.40;;
31390;SDS011;18022;45.492;11.548;2023-07-20T03:27:47;10.55;;;6.63;;
31390;SDS011;18022;45.492;11.548;2023-07-20T03:30:13;11.63;;;6.85;;
31390;SDS011;18022;45.492;11.548;2023-07-20T03:32:39;9.35;;;7.25;;
31390;SDS011;18022;45.492;11.548;2023-07-20T03:35:05;11.45;;;6.28;;
31390;SDS011;18022;45.492;11.548;2023-07-20T03:37:31;14.93;;;6.20;;
31390;SDS011;18022;45.492;11.548;2023-07-20T03:39:57;16.90;;;6.38;;
31390;SDS011;18022;45.492;11.548;2023-07-20T03:42:23;12.30;;;6.63;;
31390;SDS011;18022;45.492;11.548;2023-07-20T03:44:48;8.55;;;6.32;;
31390;SDS011;18022;45.492;11.548;2023-07-20T03:47:15;9.70;;;6.47;;
31390;SDS011;18022;45.492;11.548;2023-07-20T03:49:41;10.07;;;5.80;;
31390;SDS011;18022;45.492;11.548;2023-07-20T03:52:07;9.93;;;6.05;;
31390;SDS011;18022;45.492;11.548;2023-07-20T03:54:32;13.90;;;5.95;;
31390;SDS011;18022;45.492;11.548;2023-07-20T03:56:58;9.70;;;5.72;;
31390;SDS011;18022;45.492;11.548;2023-07-20T03:59:24;8.57;;;5.97;;
31390;SDS011;18022;45.492;11.548;2023-07-20T04:01:50;9.02;;;6.10;;
31390;SDS011;18022;45.492;11.548;2023-07-20T04:04:15;9.85;;;5.45;;
31390;SDS011;18022;45.492;11.548;2023-07-20T04:06:42;9.63;;;6.10;;
31390;SDS011;18022;45.492;11.548;2023-07-20T04:09:11;9.95;;;5.85;;
31390;SDS011;18022;45.492;11.548;2023-07-20T04:11:37;7.90;;;5.93;;
31390;SDS011;18022;45.492;11.548;2023-07-20T04:14:03;8.02;;;5.43;;
31390;SDS011;18022;45.492;11.548;2023-07-20T04:16:29;12.77;;;6.47;;
31390;SDS011;18022;45.492;11.548;2023-07-20T04:18:55;8.52;;;6.03;;
31390;SDS011;18022;45.492;11.548;2023-07-20T04:21:21;9.57;;;5.88;;
31390;SDS011;18022;45.492;11.548;2023-07-20T04:23:47;9.63;;;5.80;;
31390;SDS011;18022;45.492;11.548;2023-07-20T04:26:13;9.10;;;6.07;;
31390;SDS011;18022;45.492;11.548;2023-07-20T04:28:39;10.95;;;5.63;;
31390;SDS011;18022;45.492;11.548;2023-07-20T04:31:14;7.78;;;5.72;;
31390;SDS011;18022;45.492;11.548;2023-07-20T04:33:40;8.25;;;5.80;;
31390;SDS011;18022;45.492;11.548;2023-07-20T04:36:06;10.65;;;5.90;;
31390;SDS011;18022;45.492;11.548;2023-07-20T04:38:32;9.82;;;6.40;;
31390;SDS011;18022;45.492;11.548;2023-07-20T04:40:58;12.00;;;6.07;;
31390;SDS011;18022;45.492;11.548;2023-07-20T04:43:24;7.90;;;5.70;;
31390;SDS011;18022;45.492;11.548;2023-07-20T04:45:50;6.07;;;5.28;;
31390;SDS011;18022;45.492;11.548;2023-07-20T04:48:16;8.55;;;5.25;;
31390;SDS011;18022;45.492;11.548;2023-07-20T04:50:43;12.70;;;5.65;;
31390;SDS011;18022;45.492;11.548;2023-07-20T04:53:10;11.50;;;6.05;;
31390;SDS011;18022;45.492;11.548;2023-07-20T04:55:40;8.93;;;5.63;;
31390;SDS011;18022;45.492;11.548;2023-07-20T04:58:06;9.88;;;5.78;;
31390;SDS011;18022;45.492;11.548;2023-07-20T05:00:32;9.88;;;5.75;;
31390;SDS011;18022;45.492;11.548;2023-07-20T05:02:58;6.78;;;5.47;;
31390;SDS011;18022;45.492;11.548;2023-07-20T05:05:24;12.88;;;6.00;;
31390;SDS011;18022;45.492;11.548;2023-07-20T05:07:50;9.18;;;5.47;;
31390;SDS011;18022;45.492;11.548;2023-07-20T05:10:16;12.40;;;6.10;;
31390;SDS011;18022;45.492;11.548;2023-07-20T05:12:42;9.45;;;5.68;;
31390;SDS011;18022;45.492;11.548;2023-07-20T05:15:08;12.07;;;5.60;;
31390;SDS011;18022;45.492;11.548;2023-07-20T05:17:34;11.70;;;5.65;;
31390;SDS011;18022;45.492;11.548;2023-07-20T05:20:00;8.43;;;5.60;;
31390;SDS011;18022;45.492;11.548;2023-07-20T05:22:26;9.50;;;5.78;;
31390;SDS011;18022;45.492;11.548;2023-07-20T05:24:51;7.78;;;5.82;;
31390;SDS011;18022;45.492;11.548;2023-07-20T05:27:17;10.60;;;5.88;;
31390;SDS011;18022;45.492;11.548;2023-07-20T05:29:44;8.35;;;5.75;;
31390;SDS011;18022;45.492;11.548;2023-07-20T05:32:10;10.07;;;5.78;;
31390;SDS011;18022;45.492;11.548;2023-07-20T05:34:35;10.52;;;5.25;;
31390;SDS011;18022;45.492;11.548;2023-07-20T05:37:01;6.00;;;5.40;;
31390;SDS011;18022;45.492;11.548;2023-07-20T05:39:27;7.25;;;5.28;;
31390;SDS011;18022;45.492;11.548;2023-07-20T05:41:52;12.52;;;5.43;;
31390;SDS011;18022;45.492;11.548;2023-07-20T05:44:18;9.52;;;5.60;;
31390;SDS011;18022;45.492;11.548;2023-07-20T05:46:44;8.68;;;5.88;;
31390;SDS011;18022;45.492;11.548;2023-07-20T05:49:09;9.50;;;6.13;;
31390;SDS011;18022;45.492;11.548;2023-07-20T05:51:35;9.77;;;5.78;;
31390;SDS011;18022;45.492;11.548;2023-07-20T05:54:01;8.32;;;5.78;;
31390;SDS011;18022;45.492;11.548;2023-07-20T05:56:27;11.40;;;5.35;;
31390;SDS011;18022;45.492;11.548;2023-07-20T05:58:52;8.93;;;6.07;;
31390;SDS011;18022;45.492;11.548;2023-07-20T06:01:18;10.98;;;5.75;;
31390;SDS011;18022;45.492;11.548;2023-07-20T06:03:44;12.23;;;5.90;;
31390;SDS011;18022;45.492;11.548;2023-07-20T06:06:10;8.25;;;6.10;;
31390;SDS011;18022;45.492;11.548;2023-07-20T06:08:37;9.88;;;5.85;;
31390;SDS011;18022;45.492;11.548;2023-07-20T06:11:03;5.93;;;5.38;;
31390;SDS011;18022;45.492;11.548;2023-07-20T06:13:29;8.50;;;5.95;;
31390;SDS011;18022;45.492;11.548;2023-07-20T06:15:54;7.80;;;5.70;;
31390;SDS011;18022;45.492;11.548;2023-07-20T06:18:22;12.00;;;5.93;;
31390;SDS011;18022;45.492;11.548;2023-07-20T06:23:14;9.80;;;6.47;;
31390;SDS011;18022;45.492;11.548;2023-07-20T06:25:40;9.15;;;5.75;;
31390;SDS011;18022;45.492;11.548;2023-07-20T06:28:05;8.45;;;6.65;;
31390;SDS011;18022;45.492;11.548;2023-07-20T06:30:33;9.57;;;6.40;;
31390;SDS011;18022;45.492;11.548;2023-07-20T06:32:59;7.82;;;6.22;;
31390;SDS011;18022;45.492;11.548;2023-07-20T06:35:25;10.13;;;6.72;;
31390;SDS011;18022;45.492;11.548;2023-07-20T06:37:51;8.57;;;5.90;;
31390;SDS011;18022;45.492;11.548;2023-07-20T06:40:17;8.18;;;6.07;;
31390;SDS011;18022;45.492;11.548;2023-07-20T06:42:43;8.70;;;6.05;;
31390;SDS011;18022;45.492;11.548;2023-07-20T06:45:09;10.07;;;5.93;;
31390;SDS011;18022;45.492;11.548;2023-07-20T06:47:37;6.80;;;5.75;;
31390;SDS011;18022;45.492;11.548;2023-07-20T06:50:05;7.22;;;5.72;;
31390;SDS011;18022;45.492;11.548;2023-07-20T06:52:31;6.20;;;5.00;;
31390;SDS011;18022;45.492;11.548;2023-07-20T06:54:57;13.00;;;5.45;;
31390;SDS011;18022;45.492;11.548;2023-07-20T06:57:23;7.97;;;5.40;;
31390;SDS011;18022;45.492;11.548;2023-07-20T06:59:49;9.93;;;5.18;;
31390;SDS011;18022;45.492;11.548;2023-07-20T07:02:15;8.52;;;5.22;;
31390;SDS011;18022;45.492;11.548;2023-07-20T07:04:41;7.10;;;4.65;;
31390;SDS011;18022;45.492;11.548;2023-07-20T07:07:07;7.73;;;4.60;;
31390;SDS011;18022;45.492;11.548;2023-07-20T07:09:34;6.70;;;5.30;;
31390;SDS011;18022;45.492;11.548;2023-07-20T07:12:00;10.25;;;4.97;;
31390;SDS011;18022;45.492;11.548;2023-07-20T07:14:25;7.80;;;4.90;;
31390;SDS011;18022;45.492;11.548;2023-07-20T07:16:51;7.50;;;4.80;;
31390;SDS011;18022;45.492;11.548;2023-07-20T07:19:17;9.05;;;5.05;;
31390;SDS011;18022;45.492;11.548;2023-07-20T07:21:43;7.63;;;5.35;;
31390;SDS011;18022;45.492;11.548;2023-07-20T07:24:09;8.20;;;4.93;;
31390;SDS011;18022;45.492;11.548;2023-07-20T07:26:35;8.55;;;5.20;;
31390;SDS011;18022;45.492;11.548;2023-07-20T07:29:01;7.77;;;4.43;;
31390;SDS011;18022;45.492;11.548;2023-07-20T07:31:28;7.78;;;4.70;;
31390;SDS011;18022;45.492;11.548;2023-07-20T07:33:55;8.40;;;4.55;;
31390;SDS011;18022;45.492;11.548;2023-07-20T07:36:21;7.87;;;5.20;;
31390;SDS011;18022;45.492;11.548;2023-07-20T07:41:15;8.32;;;4.90;;
31390;SDS011;18022;45.492;11.548;2023-07-20T07:43:41;6.40;;;4.50;;
31390;SDS011;18022;45.492;11.548;2023-07-20T07:46:08;9.57;;;4.53;;
31390;SDS011;18022;45.492;11.548;2023-07-20T07:48:33;16.08;;;4.88;;
31390;SDS011;18022;45.492;11.548;2023-07-20T07:50:59;7.63;;;4.63;;
31390;SDS011;18022;45.492;11.548;2023-07-20T07:53:25;7.13;;;4.57;;
31390;SDS011;18022;45.492;11.548;2023-07-20T07:55:51;5.45;;;4.15;;
31390;SDS011;18022;45.492;11.548;2023-07-20T07:58:18;5.90;;;4.30;;
31390;SDS011;18022;45.492;11.548;2023-07-20T08:00:43;11.45;;;4.70;;
31390;SDS011;18022;45.492;11.548;2023-07-20T08:03:09;6.00;;;4.57;;
31390;SDS011;18022;45.492;11.548;2023-07-20T08:05:35;9.88;;;4.70;;
31390;SDS011;18022;45.492;11.548;2023-07-20T08:08:02;11.57;;;4.65;;
31390;SDS011;18022;45.492;11.548;2023-07-20T08:12:54;6.05;;;4.10;;
31390;SDS011;18022;45.492;11.548;2023-07-20T08:15:20;8.38;;;4.63;;
31390;SDS011;18022;45.492;11.548;2023-07-20T08:17:46;6.97;;;4.18;;
31390;SDS011;18022;45.492;11.548;2023-07-20T08:20:13;9.00;;;4.50;;
31390;SDS011;18022;45.492;11.548;2023-07-20T08:22:41;7.20;;;4.40;;
31390;SDS011;18022;45.492;11.548;2023-07-20T08:25:07;7.45;;;4.15;;
31390;SDS011;18022;45.492;11.548;2023-07-20T08:27:34;6.70;;;4.20;;
31390;SDS011;18022;45.492;11.548;2023-07-20T08:30:00;6.90;;;4.20;;
31390;SDS011;18022;45.492;11.548;2023-07-20T08:32:26;6.40;;;4.25;;
31390;SDS011;18022;45.492;11.548;2023-07-20T08:34:52;8.60;;;4.40;;
31390;SDS011;18022;45.492;11.548;2023-07-20T08:37:17;5.25;;;4.05;;
31390;SDS011;18022;45.492;11.548;2023-07-20T08:39:43;13.18;;;4.32;;
31390;SDS011;18022;45.492;11.548;2023-07-20T08:42:09;6.88;;;4.35;;
31390;SDS011;18022;45.492;11.548;2023-07-20T08:44:36;9.05;;;4.07;;
31390;SDS011;18022;45.492;11.548;2023-07-20T08:47:03;4.28;;;3.63;;
31390;SDS011;18022;45.492;11.548;2023-07-20T08:49:34;6.88;;;3.72;;
31390;SDS011;18022;45.492;11.548;2023-07-20T08:52:00;6.72;;;4.40;;
31390;SDS011;18022;45.492;11.548;2023-07-20T08:54:27;10.63;;;4.50;;
31390;SDS011;18022;45.492;11.548;2023-07-20T08:56:57;5.88;;;3.72;;
31390;SDS011;18022;45.492;11.548;2023-07-20T08:59:26;6.78;;;3.67;;
31390;SDS011;18022;45.492;11.548;2023-07-20T09:01:53;6.78;;;3.95;;
31390;SDS011;18022;45.492;11.548;2023-07-20T09:04:22;6.10;;;4.22;;
31390;SDS011;18022;45.492;11.548;2023-07-20T09:06:48;5.68;;;3.70;;
31390;SDS011;18022;45.492;11.548;2023-07-20T09:11:40;4.15;;;2.80;;
31390;SDS011;18022;45.492;11.548;2023-07-20T09:14:07;5.15;;;2.72;;
31390;SDS011;18022;45.492;11.548;2023-07-20T09:16:50;4.00;;;2.42;;
31390;SDS011;18022;45.492;11.548;2023-07-20T09:19:18;5.07;;;3.22;;
31390;SDS011;18022;45.492;11.548;2023-07-20T09:21:47;5.65;;;3.10;;
31390;SDS011;18022;45.492;11.548;2023-07-20T09:24:14;6.15;;;3.78;;
31390;SDS011;18022;45.492;11.548;2023-07-20T09:26:41;4.97;;;3.28;;
31390;SDS011;18022;45.492;11.548;2023-07-20T09:29:08;6.10;;;3.00;;
31390;SDS011;18022;45.492;11.548;2023-07-20T09:31:35;3.72;;;2.60;;
31390;SDS011;18022;45.492;11.548;2023-07-20T09:34:01;5.13;;;2.53;;
31390;SDS011;18022;45.492;11.548;2023-07-20T09:36:27;3.05;;;2.60;;
31390;SDS011;18022;45.492;11.548;2023-07-20T09:38:53;7.70;;;3.20;;
31390;SDS011;18022;45.492;11.548;2023-07-20T09:41:20;3.92;;;2.72;;
31390;SDS011;18022;45.492;11.548;2023-07-20T09:43:46;5.28;;;2.20;;
31390;SDS011;18022;45.492;11.548;2023-07-20T09:46:12;4.05;;;2.47;;
31390;SDS011;18022;45.492;11.548;2023-07-20T09:48:39;5.85;;;2.58;;
31390;SDS011;18022;45.492;11.548;2023-07-20T09:51:04;5.32;;;3.08;;
31390;SDS011;18022;45.492;11.548;2023-07-20T09:53:32;4.00;;;2.38;;
31390;SDS011;18022;45.492;11.548;2023-07-20T09:55:59;5.47;;;2.80;;
31390;SDS011;18022;45.492;11.548;2023-07-20T09:58:26;2.77;;;2.40;;
31390;SDS011;18022;45.492;11.548;2023-07-20T10:00:52;4.73;;;2.80;;
31390;SDS011;18022;45.492;11.548;2023-07-20T10:03:22;5.72;;;2.70;;
31390;SDS011;18022;45.492;11.548;2023-07-20T10:08:29;7.65;;;3.15;;
31390;SDS011;18022;45.492;11.548;2023-07-20T10:10:57;4.20;;;2.90;;
31390;SDS011;18022;45.492;11.548;2023-07-20T10:13:28;3.88;;;2.67;;
31390;SDS011;18022;45.492;11.548;2023-07-20T10:16:06;3.58;;;2.67;;
31390;SDS011;18022;45.492;11.548;2023-07-20T10:18:41;5.70;;;2.80;;
31390;SDS011;18022;45.492;11.548;2023-07-20T10:21:19;5.20;;;2.60;;
31390;SDS011;18022;45.492;11.548;2023-07-20T10:23:48;3.38;;;2.95;;
31390;SDS011;18022;45.492;11.548;2023-07-20T10:26:14;4.50;;;2.75;;
31390;SDS011;18022;45.492;11.548;2023-07-20T10:28:40;4.10;;;2.72;;
31390;SDS011;18022;45.492;11.548;2023-07-20T10:31:10;3.90;;;2.70;;
31390;SDS011;18022;45.492;11.548;2023-07-20T10:33:37;5.63;;;3.00;;
31390;SDS011;18022;45.492;11.548;2023-07-20T10:36:04;4.78;;;2.92;;
31390;SDS011;18022;45.492;11.548;2023-07-20T10:43:49;3.90;;;2.60;;
31390;SDS011;18022;45.492;11.548;2023-07-20T10:46:33;5.55;;;2.80;;
31390;SDS011;18022;45.492;11.548;2023-07-20T10:49:05;6.03;;;2.70;;
31390;SDS011;18022;45.492;11.548;2023-07-20T10:51:45;6.72;;;3.05;;
31390;SDS011;18022;45.492;11.548;2023-07-20T10:56:42;5.68;;;2.58;;
31390;SDS011;18022;45.492;11.548;2023-07-20T11:01:50;6.30;;;2.85;;
31390;SDS011;18022;45.492;11.548;2023-07-20T11:04:40;4.10;;;2.72;;
31390;SDS011;18022;45.492;11.548;2023-07-20T11:07:07;3.90;;;3.00;;
31390;SDS011;18022;45.492;11.548;2023-07-20T11:09:34;7.80;;;2.88;;
31390;SDS011;18022;45.492;11.548;2023-07-20T11:12:10;5.35;;;2.95;;
31390;SDS011;18022;45.492;11.548;2023-07-20T11:14:44;3.38;;;2.92;;
31390;SDS011;18022;45.492;11.548;2023-07-20T11:17:18;4.15;;;2.83;;
31390;SDS011;18022;45.492;11.548;2023-07-20T11:19:48;3.92;;;2.40;;
31390;SDS011;18022;45.492;11.548;2023-07-20T11:22:15;5.00;;;2.42;;
31390;SDS011;18022;45.492;11.548;2023-07-20T11:24:42;3.78;;;2.10;;
31390;SDS011;18022;45.492;11.548;2023-07-20T11:27:08;4.65;;;2.42;;
31390;SDS011;18022;45.492;11.548;2023-07-20T11:29:34;3.47;;;2.20;;
31390;SDS011;18022;45.492;11.548;2023-07-20T11:32:01;2.80;;;1.83;;
31390;SDS011;18022;45.492;11.548;2023-07-20T11:34:29;4.35;;;2.28;;
31390;SDS011;18022;45.492;11.548;2023-07-20T11:36:56;5.20;;;2.13;;
31390;SDS011;18022;45.492;11.548;2023-07-20T11:39:22;3.33;;;1.88;;
31390;SDS011;18022;45.492;11.548;2023-07-20T11:44:18;2.97;;;1.98;;
31390;SDS011;18022;45.492;11.548;2023-07-20T11:49:28;3.88;;;2.00;;
31390;SDS011;18022;45.492;11.548;2023-07-20T11:51:54;3.55;;;2.30;;
31390;SDS011;18022;45.492;11.548;2023-07-20T11:54:21;3.60;;;2.05;;
31390;SDS011;18022;45.492;11.548;2023-07-20T11:56:48;3.83;;;2.13;;
31390;SDS011;18022;45.492;11.548;2023-07-20T11:59:13;4.60;;;2.28;;
31390;SDS011;18022;45.492;11.548;2023-07-20T12:01:39;2.97;;;2.38;;
31390;SDS011;18022;45.492;11.548;2023-07-20T12:04:05;5.68;;;2.63;;
31390;SDS011;18022;45.492;11.548;2023-07-20T12:06:32;7.40;;;2.50;;
31390;SDS011;18022;45.492;11.548;2023-07-20T12:08:58;3.67;;;2.65;;
31390;SDS011;18022;45.492;11.548;2023-07-20T12:11:37;2.47;;;2.28;;
31390;SDS011;18022;45.492;11.548;2023-07-20T12:14:07;5.40;;;2.60;;
31390;SDS011;18022;45.492;11.548;2023-07-20T12:16:34;8.45;;;2.60;;
31390;SDS011;18022;45.492;11.548;2023-07-20T12:19:02;2.97;;;2.30;;
31390;SDS011;18022;45.492;11.548;2023-07-20T12:21:28;3.10;;;2.60;;
31390;SDS011;18022;45.492;11.548;2023-07-20T12:26:21;2.92;;;2.45;;
31390;SDS011;18022;45.492;11.548;2023-07-20T12:28:49;3.17;;;2.60;;
31390;SDS011;18022;45.492;11.548;2023-07-20T12:31:14;4.50;;;2.50;;
31390;SDS011;18022;45.492;11.548;2023-07-20T12:33:40;4.30;;;2.50;;
31390;SDS011;18022;45.492;11.548;2023-07-20T12:36:07;2.73;;;2.50;;
31390;SDS011;18022;45.492;11.548;2023-07-20T12:38:33;4.22;;;2.15;;
31390;SDS011;18022;45.492;11.548;2023-07-20T12:41:02;2.75;;;2.47;;
31390;SDS011;18022;45.492;11.548;2023-07-20T12:43:28;5.35;;;2.40;;
31390;SDS011;18022;45.492;11.548;2023-07-20T12:45:55;2.53;;;2.30;;
31390;SDS011;18022;45.492;11.548;2023-07-20T12:48:21;2.90;;;2.27;;
31390;SDS011;18022;45.492;11.548;2023-07-20T12:50:47;5.05;;;2.20;;
31390;SDS011;18022;45.492;11.548;2023-07-20T12:53:13;4.63;;;2.60;;
31390;SDS011;18022;45.492;11.548;2023-07-20T12:55:39;6.00;;;2.65;;
31390;SDS011;18022;45.492;11.548;2023-07-20T12:58:05;2.60;;;2.40;;
31390;SDS011;18022;45.492;11.548;2023-07-20T13:00:31;4.13;;;2.33;;
31390;SDS011;18022;45.492;11.548;2023-07-20T13:02:57;6.05;;;2.60;;
31390;SDS011;18022;45.492;11.548;2023-07-20T13:05:23;3.65;;;2.75;;
31390;SDS011;18022;45.492;11.548;2023-07-20T13:07:49;3.27;;;2.17;;
31390;SDS011;18022;45.492;11.548;2023-07-20T13:10:15;3.60;;;2.15;;
31390;SDS011;18022;45.492;11.548;2023-07-20T13:12:41;4.53;;;2.40;;
31390;SDS011;18022;45.492;11.548;2023-07-20T13:15:07;3.25;;;2.33;;
31390;SDS011;18022;45.492;11.548;2023-07-20T13:17:37;3.45;;;2.30;;
31390;SDS011;18022;45.492;11.548;2023-07-20T13:20:05;6.18;;;2.50;;
31390;SDS011;18022;45.492;11.548;2023-07-20T13:22:32;3.80;;;2.55;;
31390;SDS011;18022;45.492;11.548;2023-07-20T13:24:59;4.10;;;2.33;;
31390;SDS011;18022;45.492;11.548;2023-07-20T13:27:25;4.13;;;2.22;;
31390;SDS011;18022;45.492;11.548;2023-07-20T13:29:51;7.28;;;2.53;;
31390;SDS011;18022;45.492;11.548;2023-07-20T13:32:17;4.60;;;2.27;;
31390;SDS011;18022;45.492;11.548;2023-07-20T13:34:43;6.88;;;2.10;;
31390;SDS011;18022;45.492;11.548;2023-07-20T13:37:13;2.63;;;2.38;;
31390;SDS011;18022;45.492;11.548;2023-07-20T13:39:39;3.95;;;2.20;;
31390;SDS011;18022;45.492;11.548;2023-07-20T13:42:05;4.95;;;2.42;;
31390;SDS011;18022;45.492;11.548;2023-07-20T13:44:31;3.60;;;2.63;;
31390;SDS011;18022;45.492;11.548;2023-07-20T13:46:57;4.25;;;2.70;;
31390;SDS011;18022;45.492;11.548;2023-07-20T13:49:23;4.63;;;2.42;;
31390;SDS011;18022;45.492;11.548;2023-07-20T13:51:49;3.17;;;2.58;;
31390;SDS011;18022;45.492;11.548;2023-07-20T13:54:15;3.20;;;2.35;;
31390;SDS011;18022;45.492;11.548;2023-07-20T13:56:41;5.30;;;2.60;;
31390;SDS011;18022;45.492;11.548;2023-07-20T13:59:06;2.78;;;2.47;;
31390;SDS011;18022;45.492;11.548;2023-07-20T14:01:32;5.53;;;2.67;;
31390;SDS011;18022;45.492;11.548;2023-07-20T14:03:59;3.45;;;2.58;;
31390;SDS011;18022;45.492;11.548;2023-07-20T14:06:25;3.47;;;2.17;;
31390;SDS011;18022;45.492;11.548;2023-07-20T14:08:51;3.53;;;2.30;;
31390;SDS011;18022;45.492;11.548;2023-07-20T14:11:18;6.75;;;2.70;;
31390;SDS011;18022;45.492;11.548;2023-07-20T14:13:44;5.55;;;2.58;;
31390;SDS011;18022;45.492;11.548;2023-07-20T14:16:09;3.33;;;2.65;;
31390;SDS011;18022;45.492;11.548;2023-07-20T14:18:36;3.55;;;2.50;;
31390;SDS011;18022;45.492;11.548;2023-07-20T14:21:01;4.95;;;2.47;;
31390;SDS011;18022;45.492;11.548;2023-07-20T14:23:28;4.93;;;2.45;;
31390;SDS011;18022;45.492;11.548;2023-07-20T14:25:54;3.53;;;2.47;;
31390;SDS011;18022;45.492;11.548;2023-07-20T14:28:20;5.05;;;2.40;;
31390;SDS011;18022;45.492;11.548;2023-07-20T14:30:46;2.90;;;2.20;;
31390;SDS011;18022;45.492;11.548;2023-07-20T14:33:12;4.18;;;2.60;;
31390;SDS011;18022;45.492;11.548;2023-07-20T14:35:37;3.28;;;2.22;;
31390;SDS011;18022;45.492;11.548;2023-07-20T14:38:03;2.70;;;2.10;;
31390;SDS011;18022;45.492;11.548;2023-07-20T14:40:29;3.60;;;2.38;;
31390;SDS011;18022;45.492;11.548;2023-07-20T14:42:58;4.53;;;2.45;;
31390;SDS011;18022;45.492;11.548;2023-07-20T14:45:26;6.85;;;2.40;;
31390;SDS011;18022;45.492;11.548;2023-07-20T14:47:52;4.95;;;2.50;;
31390;SDS011;18022;45.492;11.548;2023-07-20T14:50:22;3.95;;;2.40;;
31390;SDS011;18022;45.492;11.548;2023-07-20T14:52:48;3.83;;;2.10;;
31390;SDS011;18022;45.492;11.548;2023-07-20T14:55:14;7.43;;;2.47;;
31390;SDS011;18022;45.492;11.548;2023-07-20T14:57:40;2.88;;;1.95;;
31390;SDS011;18022;45.492;11.548;2023-07-20T15:00:06;5.72;;;2.22;;
31390;SDS011;18022;45.492;11.548;2023-07-20T15:02:35;3.88;;;2.13;;
31390;SDS011;18022;45.492;11.548;2023-07-20T15:05:08;8.48;;;2.13;;
31390;SDS011;18022;45.492;11.548;2023-07-20T15:07:34;3.95;;;2.42;;
31390;SDS011;18022;45.492;11.548;2023-07-20T15:10:00;4.93;;;2.37;;
31390;SDS011;18022;45.492;11.548;2023-07-20T15:12:26;3.35;;;2.05;;
31390;SDS011;18022;45.492;11.548;2023-07-20T15:15:02;8.40;;;2.15;;
31390;SDS011;18022;45.492;11.548;2023-07-20T15:17:31;5.03;;;2.35;;